createdAt,value
2022-10-08T00:01:42.734Z,14.70
2022-10-08T00:04:12.268Z,13.80
2022-10-08T00:06:40.387Z,14.30
2022-10-08T00:09:09.798Z,14.80
2022-10-08T00:11:39.487Z,15.27
2022-10-08T00:14:08.944Z,15.20
2022-10-08T00:16:39.814Z,15.17
2022-10-08T00:19:10.268Z,14.83
2022-10-08T00:21:39.789Z,14.80
2022-10-08T00:24:10.310Z,14.60
2022-10-08T00:26:43.582Z,16.00
2022-10-08T00:29:14.445Z,15.93
2022-10-08T00:31:44.784Z,15.17
2022-10-08T00:34:15.225Z,15.33
2022-10-08T00:36:43.572Z,15.50
2022-10-08T00:39:14.938Z,15.37
2022-10-08T00:41:44.277Z,14.87
2022-10-08T00:45:01.202Z,14.83
2022-10-08T00:47:37.000Z,14.90
2022-10-08T00:50:10.387Z,15.70
2022-10-08T00:52:41.530Z,15.30
2022-10-08T00:55:11.560Z,16.40
2022-10-08T00:57:41.223Z,15.83
2022-10-08T01:00:12.413Z,15.30
2022-10-08T01:02:40.510Z,16.33
2022-10-08T01:05:09.910Z,15.27
2022-10-08T01:07:44.484Z,15.87
2022-10-08T01:10:19.719Z,16.57
2022-10-08T01:12:56.544Z,15.43
2022-10-08T01:15:29.932Z,15.30
2022-10-08T01:18:04.922Z,17.10
2022-10-08T01:20:39.753Z,16.73
2022-10-08T01:23:25.636Z,17.20
2022-10-08T01:25:58.069Z,16.80
2022-10-08T01:28:32.249Z,16.47
2022-10-08T01:31:03.323Z,16.30
2022-10-08T01:33:35.118Z,16.37
2022-10-08T01:36:05.295Z,17.70
2022-10-08T01:38:34.953Z,17.47
2022-10-08T01:41:07.382Z,15.40
2022-10-08T01:43:39.961Z,18.07
2022-10-08T01:46:12.067Z,17.53
2022-10-08T01:48:41.383Z,16.60
2022-10-08T01:51:13.944Z,16.37
2022-10-08T01:53:45.950Z,17.57
2022-10-08T01:56:17.594Z,17.13
2022-10-08T01:58:50.089Z,17.47
2022-10-08T02:01:22.522Z,17.07
2022-10-08T02:04:04.675Z,15.90
2022-10-08T02:06:37.172Z,16.77
2022-10-08T02:09:05.849Z,16.97
2022-10-08T02:11:35.893Z,15.20
2022-10-08T02:14:06.234Z,16.37
2022-10-08T02:16:34.912Z,15.00
2022-10-08T02:19:09.087Z,16.00
2022-10-08T02:21:38.720Z,16.10
2022-10-08T02:24:12.826Z,16.83
2022-10-08T02:26:45.929Z,19.60
2022-10-08T02:29:18.200Z,18.90
2022-10-08T02:31:48.650Z,19.43
2022-10-08T02:34:20.275Z,19.00
2022-10-08T02:36:50.990Z,18.70
2022-10-08T02:39:21.178Z,19.77
2022-10-08T02:41:53.088Z,24.37
2022-10-08T02:44:25.928Z,25.03
2022-10-08T02:46:55.551Z,26.00
2022-10-08T02:49:26.142Z,24.50
2022-10-08T02:51:55.074Z,25.73
2022-10-08T02:54:24.326Z,26.30
2022-10-08T02:56:55.991Z,28.03
2022-10-08T02:59:26.674Z,29.27
2022-10-08T03:01:58.668Z,27.00
2022-10-08T03:04:29.223Z,28.63
2022-10-08T03:06:58.617Z,28.50
2022-10-08T03:09:32.216Z,29.93
2022-10-08T03:12:00.647Z,31.70
2022-10-08T03:14:30.524Z,30.30
2022-10-08T03:16:58.663Z,30.87
2022-10-08T03:19:26.829Z,32.13
2022-10-08T03:21:56.272Z,30.23
2022-10-08T03:24:24.336Z,31.27
2022-10-08T03:26:53.429Z,29.63
2022-10-08T03:29:21.579Z,30.70
2022-10-08T03:31:51.573Z,30.40
2022-10-08T03:34:19.613Z,32.50
2022-10-08T03:36:47.638Z,32.70
2022-10-08T03:39:15.876Z,29.20
2022-10-08T03:41:43.868Z,30.60
2022-10-08T03:44:12.532Z,29.07
2022-10-08T03:46:46.403Z,30.23
2022-10-08T03:49:16.054Z,29.87
2022-10-08T03:51:44.060Z,29.93
2022-10-08T03:54:12.106Z,29.57
2022-10-08T03:56:40.152Z,28.67
2022-10-08T03:59:08.410Z,29.57
2022-10-08T04:01:36.602Z,28.70
2022-10-08T04:04:04.731Z,28.93
2022-10-08T04:06:34.171Z,26.97
2022-10-08T04:09:02.224Z,28.57
2022-10-08T04:11:30.449Z,27.17
2022-10-08T04:13:58.477Z,27.50
2022-10-08T04:16:26.507Z,27.80
2022-10-08T04:18:54.641Z,27.90
2022-10-08T04:21:22.693Z,26.87
2022-10-08T04:23:52.292Z,28.57
2022-10-08T04:26:20.336Z,27.60
2022-10-08T04:28:49.170Z,28.80
2022-10-08T04:31:19.277Z,27.13
2022-10-08T04:33:47.868Z,26.87
2022-10-08T04:36:17.163Z,27.10
2022-10-08T04:38:45.949Z,26.17
2022-10-08T04:41:16.772Z,28.37
2022-10-08T04:43:45.930Z,27.83
2022-10-08T04:46:15.516Z,30.43
2022-10-08T04:48:47.659Z,27.90
2022-10-08T04:51:16.192Z,28.57
2022-10-08T04:53:44.371Z,28.60
2022-10-08T04:56:15.895Z,26.40
2022-10-08T04:58:43.975Z,26.87
2022-10-08T05:01:14.542Z,26.73
2022-10-08T05:03:43.985Z,27.10
2022-10-08T05:06:12.730Z,27.50
2022-10-08T05:08:40.801Z,27.07
2022-10-08T05:11:09.265Z,24.77
2022-10-08T05:13:38.958Z,26.50
2022-10-08T05:16:08.955Z,26.60
2022-10-08T05:18:37.919Z,24.17
2022-10-08T05:21:06.838Z,23.83
2022-10-08T05:23:35.107Z,24.00
2022-10-08T05:26:03.541Z,26.60
2022-10-08T05:28:31.611Z,22.77
2022-10-08T05:31:04.231Z,23.80
2022-10-08T05:33:32.357Z,24.87
2022-10-08T05:36:04.023Z,24.43
2022-10-08T05:38:35.082Z,25.10
2022-10-08T05:41:11.605Z,24.07
2022-10-08T05:43:39.966Z,24.20
2022-10-08T05:46:09.916Z,24.33
2022-10-08T05:48:38.201Z,27.20
2022-10-08T05:51:07.269Z,25.60
2022-10-08T05:53:36.751Z,26.47
2022-10-08T05:56:06.442Z,26.23
2022-10-08T05:58:35.250Z,26.87
2022-10-08T06:01:05.393Z,26.07
2022-10-08T06:03:35.481Z,24.47
2022-10-08T06:06:04.236Z,24.07
2022-10-08T06:08:32.552Z,25.27
2022-10-08T06:11:01.238Z,24.13
2022-10-08T06:13:29.750Z,23.37
2022-10-08T06:15:58.260Z,24.20
2022-10-08T06:18:28.038Z,23.33
2022-10-08T06:20:57.497Z,23.53
2022-10-08T06:23:25.571Z,25.00
2022-10-08T06:25:53.596Z,23.30
2022-10-08T06:28:21.693Z,23.30
2022-10-08T06:30:49.773Z,23.87
2022-10-08T06:33:17.871Z,23.83
2022-10-08T06:35:45.907Z,23.23
2022-10-08T06:38:15.339Z,24.93
2022-10-08T06:40:43.391Z,23.80
2022-10-08T06:43:13.631Z,25.33
2022-10-08T06:45:43.370Z,25.50
2022-10-08T06:48:12.243Z,26.03
2022-10-08T06:50:40.985Z,27.90
2022-10-08T06:53:10.755Z,27.30
2022-10-08T06:55:40.215Z,28.40
2022-10-08T06:58:08.363Z,26.70
2022-10-08T07:00:36.454Z,27.70
2022-10-08T07:03:04.651Z,25.70
2022-10-08T07:05:34.466Z,24.90
2022-10-08T07:08:02.617Z,27.50
2022-10-08T07:10:33.235Z,25.80
2022-10-08T07:13:03.422Z,27.10
2022-10-08T07:15:32.773Z,27.47
2022-10-08T07:18:00.829Z,26.37
2022-10-08T07:20:28.853Z,24.67
2022-10-08T07:22:56.864Z,23.40
2022-10-08T07:25:24.911Z,26.80
2022-10-08T07:27:53.120Z,24.80
2022-10-08T07:30:22.562Z,26.47
2022-10-08T07:32:53.526Z,23.63
2022-10-08T07:35:21.665Z,24.87
2022-10-08T07:37:49.733Z,24.37
2022-10-08T07:40:17.816Z,25.70
2022-10-08T07:42:46.137Z,24.80
2022-10-08T07:45:14.560Z,23.93
2022-10-08T07:47:43.902Z,25.57
2022-10-08T07:50:12.104Z,23.10
2022-10-08T07:52:40.132Z,26.27
2022-10-08T07:55:09.004Z,25.50
2022-10-08T07:57:37.123Z,26.87
2022-10-08T08:00:06.053Z,26.43
2022-10-08T08:02:40.378Z,25.40
2022-10-08T08:05:10.385Z,24.13
2022-10-08T08:07:38.419Z,25.37
2022-10-08T08:10:07.560Z,23.63
2022-10-08T08:12:35.608Z,25.17
2022-10-08T08:15:04.226Z,26.10
2022-10-08T08:17:32.306Z,25.03
2022-10-08T08:20:01.613Z,23.90
2022-10-08T08:22:31.001Z,26.00
2022-10-08T08:24:59.072Z,25.27
2022-10-08T08:27:27.189Z,24.90
2022-10-08T08:29:55.234Z,24.57
2022-10-08T08:32:28.228Z,25.30
2022-10-08T08:34:56.786Z,25.00
2022-10-08T08:37:24.926Z,24.37
2022-10-08T08:39:54.337Z,24.13
2022-10-08T08:42:37.801Z,23.27
2022-10-08T08:45:34.324Z,24.03
2022-10-08T08:48:06.283Z,21.70
2022-10-08T08:50:36.336Z,22.13
2022-10-08T08:53:05.563Z,22.63
2022-10-08T08:55:37.913Z,23.07
2022-10-08T08:58:16.521Z,21.70
2022-10-08T09:00:47.224Z,23.37
2022-10-08T09:03:21.607Z,21.87
2022-10-08T09:05:59.270Z,24.10
2022-10-08T09:08:31.892Z,22.33
2022-10-08T09:11:02.953Z,22.13
2022-10-08T09:13:33.576Z,21.40
2022-10-08T09:16:02.087Z,20.83
2022-10-08T09:18:30.397Z,20.50
2022-10-08T09:20:58.534Z,19.37
2022-10-08T09:23:27.752Z,18.90
2022-10-08T09:25:59.022Z,19.60
2022-10-08T09:28:43.110Z,19.67
2022-10-08T09:31:28.356Z,17.03
2022-10-08T09:33:59.575Z,17.70
2022-10-08T09:36:46.190Z,18.50
2022-10-08T09:39:19.926Z,17.07
2022-10-08T09:41:49.325Z,18.47
2022-10-08T09:44:21.036Z,18.60
2022-10-08T09:46:49.800Z,18.00
2022-10-08T09:49:36.169Z,19.20
2022-10-08T09:52:08.086Z,20.80
2022-10-08T09:54:38.084Z,18.73
2022-10-08T09:57:07.615Z,18.13
2022-10-08T09:59:40.799Z,19.77
2022-10-08T10:02:27.724Z,20.33
2022-10-08T10:04:56.805Z,20.33
2022-10-08T10:07:25.164Z,22.20
2022-10-08T10:09:54.970Z,18.77
2022-10-08T10:12:26.321Z,20.60
2022-10-08T10:14:58.489Z,20.03
2022-10-08T10:17:35.672Z,19.73
2022-10-08T10:20:06.822Z,19.43
2022-10-08T10:22:41.378Z,18.40
2022-10-08T10:25:17.934Z,17.47
2022-10-08T10:27:51.756Z,18.93
2022-10-08T10:30:22.214Z,18.10
2022-10-08T10:32:54.257Z,16.77
2022-10-08T10:35:25.605Z,17.60
2022-10-08T10:37:58.295Z,18.60
2022-10-08T10:40:36.717Z,17.47
2022-10-08T10:43:17.594Z,18.93
2022-10-08T10:45:51.640Z,19.10
2022-10-08T10:48:19.779Z,17.93
2022-10-08T10:50:59.574Z,19.07
2022-10-08T10:53:34.959Z,18.60
2022-10-08T10:56:09.716Z,19.70
2022-10-08T10:58:45.454Z,17.73
2022-10-08T11:01:23.526Z,19.87
2022-10-08T11:04:01.795Z,20.80
2022-10-08T11:06:51.882Z,23.00
2022-10-08T11:09:25.301Z,19.60
2022-10-08T11:11:55.878Z,19.40
2022-10-08T11:14:37.704Z,18.77
2022-10-08T11:17:21.943Z,21.83
2022-10-08T11:19:57.593Z,22.80
2022-10-08T11:22:31.243Z,21.80
2022-10-08T11:25:13.862Z,21.40
2022-10-08T11:27:49.585Z,19.17
2022-10-08T11:30:20.505Z,20.93
2022-10-08T11:32:54.421Z,20.50
2022-10-08T11:35:30.109Z,21.30
2022-10-08T11:38:05.166Z,19.43
2022-10-08T11:40:36.494Z,17.90
2022-10-08T11:43:07.401Z,20.87
2022-10-08T11:45:38.245Z,19.63
2022-10-08T11:48:31.636Z,20.10
2022-10-08T11:51:38.446Z,19.80
2022-10-08T11:54:12.465Z,17.00
2022-10-08T11:56:42.849Z,18.27
2022-10-08T11:59:28.642Z,19.17
2022-10-08T12:01:58.832Z,19.10
2022-10-08T12:04:32.498Z,19.90
2022-10-08T12:07:19.232Z,17.97
2022-10-08T12:10:38.155Z,16.60
2022-10-08T12:13:28.510Z,18.07
2022-10-08T12:16:06.863Z,16.67
2022-10-08T12:18:52.998Z,16.50
2022-10-08T12:21:50.697Z,18.10
2022-10-08T12:25:00.629Z,16.63
2022-10-08T12:27:34.409Z,19.00
2022-10-08T12:30:04.776Z,18.70
2022-10-08T12:32:34.273Z,17.20
2022-10-08T12:35:02.843Z,17.33
2022-10-08T12:38:13.631Z,16.10
2022-10-08T12:40:44.258Z,16.87
2022-10-08T12:43:23.785Z,17.40
2022-10-08T12:45:58.775Z,16.07
2022-10-08T12:48:34.402Z,20.60
2022-10-08T12:51:18.103Z,18.53
2022-10-08T12:53:48.345Z,15.90
2022-10-08T12:56:19.307Z,16.60
2022-10-08T12:58:47.948Z,16.40
2022-10-08T13:01:18.592Z,14.60
2022-10-08T13:03:47.835Z,15.60
2022-10-08T13:06:18.499Z,15.17
2022-10-08T13:08:50.538Z,15.60
2022-10-08T13:11:19.509Z,15.47
2022-10-08T13:13:51.007Z,15.43
2022-10-08T13:16:21.207Z,13.70
2022-10-08T13:18:53.558Z,16.30
2022-10-08T13:21:37.680Z,16.67
2022-10-08T13:24:32.047Z,15.10
2022-10-08T13:27:00.553Z,16.00
2022-10-08T13:29:32.784Z,16.23
2022-10-08T13:32:03.247Z,15.73
2022-10-08T13:34:33.220Z,15.90
2022-10-08T13:37:03.685Z,15.47
2022-10-08T13:39:35.147Z,16.17
2022-10-08T13:42:08.463Z,16.70
2022-10-08T13:44:38.311Z,15.57
2022-10-08T13:47:09.335Z,16.70
2022-10-08T13:49:38.499Z,15.63
2022-10-08T13:52:10.125Z,16.10
2022-10-08T13:54:42.302Z,17.10
2022-10-08T13:57:10.634Z,16.07
2022-10-08T13:59:38.885Z,15.50
2022-10-08T14:02:08.056Z,16.53
2022-10-08T14:04:36.100Z,15.73
2022-10-08T14:07:04.963Z,15.80
2022-10-08T14:09:33.166Z,15.60
2022-10-08T14:12:05.313Z,15.23
2022-10-08T14:14:33.499Z,16.03
2022-10-08T14:17:01.589Z,14.60
2022-10-08T14:19:29.682Z,13.80
2022-10-08T14:21:57.934Z,16.00
2022-10-08T14:24:27.125Z,14.83
2022-10-08T14:26:55.209Z,13.50
2022-10-08T14:29:24.721Z,14.70
2022-10-08T14:31:53.710Z,15.23
2022-10-08T14:34:21.811Z,14.70
2022-10-08T14:36:55.222Z,16.43
2022-10-08T14:39:25.009Z,13.87
2022-10-08T14:41:54.047Z,14.60
2022-10-08T14:44:22.699Z,14.63
2022-10-08T14:46:53.196Z,14.20
2022-10-08T14:49:21.396Z,15.50
2022-10-08T14:51:50.434Z,15.20
2022-10-08T14:54:19.138Z,14.57
2022-10-08T14:56:48.286Z,14.33
2022-10-08T14:59:16.649Z,14.63
2022-10-08T15:01:46.436Z,14.10
2022-10-08T15:04:16.444Z,14.60
2022-10-08T15:06:44.536Z,13.80
2022-10-08T15:09:13.392Z,14.27
2022-10-08T15:11:41.517Z,14.03
2022-10-08T15:14:09.813Z,14.20
2022-10-08T15:16:39.964Z,14.63
2022-10-08T15:19:09.122Z,15.57
2022-10-08T15:21:39.797Z,14.47
2022-10-08T15:24:08.959Z,14.70
2022-10-08T15:26:38.223Z,15.93
2022-10-08T15:29:06.446Z,14.27
2022-10-08T15:31:35.608Z,15.13
2022-10-08T15:34:03.713Z,15.93
2022-10-08T15:36:34.193Z,15.87
2022-10-08T15:39:07.623Z,14.40
2022-10-08T15:41:37.151Z,15.87
2022-10-08T15:44:09.785Z,16.07
2022-10-08T15:46:39.035Z,15.27
2022-10-08T15:49:08.229Z,16.10
2022-10-08T15:51:36.289Z,15.20
2022-10-08T15:54:07.554Z,15.70
2022-10-08T15:56:36.701Z,14.67
2022-10-08T15:59:06.494Z,16.47
2022-10-08T16:01:34.803Z,16.80
2022-10-08T16:04:03.945Z,16.10
2022-10-08T16:06:35.010Z,16.63
2022-10-08T16:09:05.024Z,15.47
2022-10-08T16:11:36.353Z,17.90
2022-10-08T16:14:08.413Z,16.87
2022-10-08T16:16:36.961Z,16.43
2022-10-08T16:19:06.925Z,17.60
2022-10-08T16:21:36.109Z,16.87
2022-10-08T16:24:04.425Z,17.37
2022-10-08T16:26:33.848Z,15.53
2022-10-08T16:29:06.470Z,17.43
2022-10-08T16:31:36.175Z,17.00
2022-10-08T16:34:07.655Z,15.83
2022-10-08T16:36:37.414Z,18.03
2022-10-08T16:39:07.320Z,17.80
2022-10-08T16:41:36.542Z,17.17
2022-10-08T16:44:12.576Z,18.53
2022-10-08T16:46:42.434Z,17.43
2022-10-08T16:49:18.455Z,17.27
2022-10-08T16:51:51.781Z,17.97
2022-10-08T16:54:20.209Z,19.07
2022-10-08T16:56:48.972Z,19.00
2022-10-08T16:59:20.209Z,18.40
2022-10-08T17:01:50.944Z,18.27
2022-10-08T17:04:19.998Z,18.00
2022-10-08T17:06:49.150Z,19.53
2022-10-08T17:09:17.699Z,19.60
2022-10-08T17:11:46.153Z,19.67
2022-10-08T17:14:14.349Z,20.33
2022-10-08T17:16:46.491Z,19.90
2022-10-08T17:19:15.065Z,20.27
2022-10-08T17:21:44.964Z,20.30
2022-10-08T17:24:14.674Z,21.90
2022-10-08T17:26:44.569Z,20.87
2022-10-08T17:29:13.503Z,20.47
2022-10-08T17:31:42.995Z,21.50
2022-10-08T17:34:13.827Z,19.43
2022-10-08T17:36:44.197Z,20.67
2022-10-08T17:39:15.162Z,21.30
2022-10-08T17:41:44.658Z,23.13
2022-10-08T17:44:19.692Z,21.27
2022-10-08T17:46:49.198Z,20.57
2022-10-08T17:49:21.811Z,22.73
2022-10-08T17:51:51.484Z,23.20
2022-10-08T17:54:21.826Z,24.23
2022-10-08T17:56:52.477Z,24.13
2022-10-08T17:59:22.806Z,24.27
2022-10-08T18:01:52.442Z,22.63
2022-10-08T18:04:23.596Z,23.70
2022-10-08T18:06:52.981Z,21.53
2022-10-08T18:09:22.909Z,15.97
2022-10-08T18:11:53.738Z,10.60
2022-10-08T18:14:23.816Z,10.00
2022-10-08T18:16:52.950Z,9.90
2022-10-08T18:19:24.061Z,9.70
2022-10-08T18:21:54.832Z,8.80
2022-10-08T18:24:26.096Z,8.03
2022-10-08T18:26:59.458Z,7.90
2022-10-08T18:29:30.860Z,7.43
2022-10-08T18:31:59.918Z,8.23
2022-10-08T18:34:31.325Z,8.93
2022-10-08T18:37:00.125Z,8.57
2022-10-08T18:39:30.911Z,8.90
2022-10-08T18:42:02.300Z,8.90
2022-10-08T18:44:31.946Z,9.70
2022-10-08T18:47:05.239Z,10.30
2022-10-08T18:49:37.188Z,9.07
2022-10-08T18:52:06.520Z,8.73
2022-10-08T18:54:36.099Z,8.50
2022-10-08T18:57:05.868Z,9.70
2022-10-08T18:59:35.276Z,9.90
2022-10-08T19:02:05.729Z,10.30
2022-10-08T19:04:36.210Z,10.50
2022-10-08T19:07:05.692Z,10.50
2022-10-08T19:09:34.104Z,12.00
2022-10-08T19:12:03.735Z,11.60
2022-10-08T19:14:32.401Z,10.03
2022-10-08T19:17:02.758Z,11.97
2022-10-08T19:19:32.897Z,12.20
2022-10-08T19:22:02.911Z,10.83
2022-10-08T19:24:31.844Z,11.20
2022-10-08T19:27:00.247Z,11.50
2022-10-08T19:29:33.808Z,11.20
2022-10-08T19:32:04.084Z,11.30
2022-10-08T19:34:33.980Z,11.90
2022-10-08T19:37:05.363Z,12.73
2022-10-08T19:39:35.003Z,10.57
2022-10-08T19:42:04.844Z,11.70
2022-10-08T19:44:38.243Z,10.57
2022-10-08T19:47:08.656Z,11.80
2022-10-08T19:49:37.869Z,11.20
2022-10-08T19:52:09.380Z,11.30
2022-10-08T19:54:39.334Z,11.80
2022-10-08T19:57:09.693Z,11.87
2022-10-08T19:59:37.890Z,12.20
2022-10-08T20:02:06.160Z,12.67
2022-10-08T20:04:34.490Z,11.40
2022-10-08T20:07:02.527Z,11.80
2022-10-08T20:09:36.364Z,11.67
2022-10-08T20:12:09.151Z,11.43
2022-10-08T20:14:37.773Z,11.27
2022-10-08T20:17:06.132Z,12.60
2022-10-08T20:19:34.353Z,12.23
2022-10-08T20:22:02.675Z,10.90
2022-10-08T20:24:32.452Z,11.57
2022-10-08T20:27:00.548Z,12.20
2022-10-08T20:29:30.956Z,11.27
2022-10-08T20:32:00.752Z,9.97
2022-10-08T20:34:31.745Z,9.50
2022-10-08T20:37:01.638Z,8.80
2022-10-08T20:39:30.312Z,9.87
2022-10-08T20:42:00.185Z,8.70
2022-10-08T20:44:28.292Z,9.53
2022-10-08T20:46:56.448Z,8.40
2022-10-08T20:49:24.822Z,9.40
2022-10-08T20:51:53.048Z,8.50
2022-10-08T20:54:21.175Z,8.17
2022-10-08T20:56:49.331Z,7.67
2022-10-08T20:59:20.090Z,7.50
2022-10-08T21:01:50.396Z,7.63
2022-10-08T21:04:18.987Z,8.40
2022-10-08T21:06:49.022Z,7.50
2022-10-08T21:09:18.639Z,8.90
2022-10-08T21:11:47.142Z,7.83
2022-10-08T21:14:17.079Z,7.43
2022-10-08T21:16:46.851Z,7.10
2022-10-08T21:19:16.193Z,8.30
2022-10-08T21:21:44.459Z,7.37
2022-10-08T21:24:12.506Z,6.97
2022-10-08T21:26:42.137Z,5.90
2022-10-08T21:29:12.025Z,6.30
2022-10-08T21:31:41.921Z,6.47
2022-10-08T21:34:11.719Z,7.43
2022-10-08T21:36:41.098Z,6.30
2022-10-08T21:39:11.529Z,5.60
2022-10-08T21:41:39.543Z,7.30
2022-10-08T21:44:08.887Z,5.90
2022-10-08T21:46:39.518Z,6.20
2022-10-08T21:49:09.269Z,5.97
2022-10-08T21:51:38.667Z,6.73
2022-10-08T21:54:07.602Z,6.80
2022-10-08T21:56:38.242Z,6.43
2022-10-08T21:59:07.707Z,6.33
2022-10-08T22:01:37.893Z,6.50
2022-10-08T22:04:08.114Z,6.57
2022-10-08T22:06:39.148Z,5.83
2022-10-08T22:09:08.680Z,6.90
2022-10-08T22:11:36.716Z,6.33
2022-10-08T22:14:04.820Z,6.40
2022-10-08T22:16:32.971Z,6.53
2022-10-08T22:19:01.196Z,6.83
2022-10-08T22:21:29.520Z,6.60
2022-10-08T22:23:58.952Z,7.07
2022-10-08T22:26:29.207Z,6.93
2022-10-08T22:28:57.511Z,6.50
2022-10-08T22:31:25.661Z,7.03
2022-10-08T22:33:54.125Z,7.17
2022-10-08T22:36:23.808Z,6.30
2022-10-08T22:38:52.130Z,6.70
2022-10-08T22:41:22.723Z,6.57
2022-10-08T22:43:50.845Z,7.00
2022-10-08T22:46:20.368Z,6.73
2022-10-08T22:48:48.704Z,6.17
2022-10-08T22:51:17.767Z,6.67
2022-10-08T22:53:46.166Z,6.30
2022-10-08T22:56:17.096Z,7.00
2022-10-08T22:58:47.055Z,6.10
2022-10-08T23:01:16.591Z,6.43
2022-10-08T23:03:44.872Z,6.50
2022-10-08T23:06:15.806Z,6.40
2022-10-08T23:08:46.324Z,6.73
2022-10-08T23:11:15.478Z,5.30
2022-10-08T23:13:45.604Z,5.53
2022-10-08T23:16:16.548Z,5.93
2022-10-08T23:18:46.305Z,6.27
2022-10-08T23:21:16.633Z,7.00
2022-10-08T23:23:45.445Z,6.70
2022-10-08T23:26:14.089Z,7.30
2022-10-08T23:28:42.552Z,6.50
2022-10-08T23:31:12.735Z,6.90
2022-10-08T23:33:44.203Z,6.97
2022-10-08T23:36:14.280Z,6.20
2022-10-08T23:38:42.284Z,6.77
2022-10-08T23:41:11.559Z,6.43
2022-10-08T23:43:40.512Z,6.40
2022-10-08T23:46:09.806Z,6.07
2022-10-08T23:48:38.439Z,6.50
2022-10-08T23:51:09.186Z,5.80
2022-10-08T23:53:37.568Z,5.70
2022-10-08T23:56:06.613Z,6.10
2022-10-08T23:58:34.844Z,6.40
